Ocean Drive — ZGCA7 — position and weather

sailwx.info

Track history (hours):
 
Tides and Currents Weather Stations Pressure Air Temp Water Temp Dewpoint Dewpoint Depression Visibility Wind Speed Wind Dir Waves Ship Positions

Ocean Drive

Last reported at 2017-Jun-01 08:16 UTC. Time now 2017-Jun-28 17:38 UTC.
Position N 36°59' E 025°17'.
Warning: this ship's position is 27 days out of date.

MMSI: 319901000.

Date/timePositionNaut miles runAvg speedWind from/ knotsBaromVisibWave heightAir tempDewpointWater temp
2017-Jun-01 08:16N 36°59' E 025°17'311.2
2017-Jun-01 08:00N 37°02' E 025°18'611.1
2017-Jun-01 07:30N 37°08' E 025°19'611.5
2017-Jun-01 07:00N 37°13' E 025°19'611.6
2017-Jun-01 06:30N 37°19' E 025°18'611.4
2017-Jun-01 06:00N 37°25' E 025°18'3 5.2
2017-Jun-01 05:29N 37°27' E 025°20'0 0.0
2017-Jun-01 04:00N 37°27' E 025°20'0 0.0
2017-Jun-01 03:27N 37°27' E 025°20'0 0.0
2017-May-31 21:58N 37°27' E 025°20'0 0.0
2017-May-31 21:25N 37°27' E 025°20'0 0.0
2017-May-31 21:00N 37°27' E 025°20'0 0.0
2017-May-31 20:30N 37°27' E 025°20'3 5.4
2017-May-31 20:00N 37°25' E 025°18'3 5.3
2017-May-31 19:30N 37°24' E 025°21'0 0.0
2017-May-31 19:00N 37°24' E 025°21'0 0.0
2017-May-31 18:30N 37°24' E 025°21'0 0.0
2017-May-31 18:00N 37°24' E 025°21'0 0.0
2017-May-31 17:30N 37°24' E 025°21'0 0.0
2017-May-31 17:00N 37°24' E 025°21'0 0.0
2017-May-31 16:30N 37°24' E 025°21'0 0.0
2017-May-31 16:00N 37°24' E 025°21'0 0.0
2017-May-31 15:30N 37°24' E 025°21'0 0.0
2017-May-31 15:00N 37°24' E 025°21'0 0.0
2017-May-31 14:00N 37°24' E 025°21'0 0.0
2017-May-31 13:30N 37°24' E 025°21'1 1.6
2017-May-31 13:00N 37°24' E 025°22'3 6.9
2017-May-31 12:30N 37°25' E 025°18'2 4.7
2017-May-31 12:00N 37°27' E 025°20'0 0.1
2017-May-31 11:28N 37°27' E 025°20'0 0.0
2017-May-31 11:00N 37°27' E 025°20'0 0.0
2017-May-31 10:30N 37°27' E 025°20'0 0.0
2017-May-31 10:00N 37°27' E 025°20'0 0.0
2017-May-31 09:30N 37°27' E 025°20'0 0.0
2017-May-31 08:59N 37°27' E 025°20'0 0.0
2017-May-31 08:28N 37°27' E 025°20'0 0.0
2017-May-31 08:00N 37°27' E 025°20'0 0.0
2017-May-31 07:30N 37°27' E 025°20'0 0.0
2017-May-31 07:00N 37°27' E 025°20'0 0.0
2017-May-31 06:30N 37°27' E 025°20'0 0.0
2017-May-31 06:00N 37°27' E 025°20'0 0.0
2017-May-31 05:30N 37°27' E 025°20'0 0.0
2017-May-31 05:00N 37°27' E 025°20'0 0.0
2017-May-31 04:30N 37°27' E 025°20'0 0.0
2017-May-31 04:00N 37°27' E 025°20'0 0.0
2017-May-31 03:30N 37°27' E 025°20'0 0.0
2017-May-31 03:00N 37°27' E 025°20'0 0.0
2017-May-31 02:30N 37°27' E 025°20'0 0.0
2017-May-31 02:00N 37°27' E 025°20'0 0.0
2017-May-31 01:30N 37°27' E 025°20'0 0.0
2017-May-31 00:59N 37°27' E 025°20'0 0.0
2017-May-31 00:29N 37°27' E 025°20'0 0.0
2017-May-31 00:00N 37°27' E 025°20'0 0.0
2017-May-30 23:30N 37°27' E 025°20'1 1.2
2017-May-30 23:00N 37°26' E 025°19'0 0.0
2017-May-30 22:30N 37°26' E 025°19'2 3.4
2017-May-30 22:00N 37°26' E 025°17'3 6.4
2017-May-30 21:30N 37°24' E 025°21'0 0.2
2017-May-30 21:00N 37°24' E 025°21'0 0.0
2017-May-30 20:30N 37°24' E 025°21'0 0.0
2017-May-30 20:00N 37°24' E 025°21'0 0.0
2017-May-30 19:30N 37°24' E 025°21'0 0.0
2017-May-30 19:00N 37°24' E 025°21'0 0.0
2017-May-30 18:30N 37°24' E 025°21'0 0.0
2017-May-30 18:00N 37°24' E 025°21'0 0.0
2017-May-30 17:30N 37°24' E 025°21'0 0.0
2017-May-30 17:00N 37°24' E 025°21'0 0.0
2017-May-30 16:30N 37°24' E 025°21'0 0.0
2017-May-30 16:00N 37°24' E 025°21'0 0.4
2017-May-30 15:31N 37°24' E 025°21'3 5.1
2017-May-30 15:00N 37°25' E 025°18'3 2.5
2017-May-30 13:59N 37°27' E 025°20'0 0.0
2017-May-30 13:29N 37°27' E 025°20'0 0.0
2017-May-30 13:00N 37°27' E 025°20'0 0.0
2017-May-30 12:30N 37°27' E 025°20'0 0.0
2017-May-30 11:59N 37°27' E 025°20'0 0.0
2017-May-30 11:30N 37°27' E 025°20'0 0.0
2017-May-30 11:00N 37°27' E 025°20'0 0.0
2017-May-30 10:30N 37°27' E 025°20'0 0.0
2017-May-30 10:00N 37°27' E 025°20'0 0.0
2017-May-30 09:30N 37°27' E 025°20'0 0.0
2017-May-30 09:00N 37°27' E 025°20'0 0.0
2017-May-30 08:30N 37°27' E 025°20'0 0.0
2017-May-30 07:56N 37°27' E 025°20'0 0.0
2017-May-30 07:30N 37°27' E 025°20'0 0.0
2017-May-30 06:59N 37°27' E 025°20'0 0.0
2017-May-30 06:29N 37°27' E 025°20'0 0.0
2017-May-30 06:00N 37°27' E 025°20'0 0.0
2017-May-30 05:26N 37°27' E 025°20'0 0.0
2017-May-30 05:00N 37°27' E 025°20'0 0.0
2017-May-30 04:30N 37°27' E 025°20'0 0.0
2017-May-30 04:00N 37°27' E 025°20'0 0.0
2017-May-30 03:30N 37°27' E 025°20'0 0.0
2017-May-30 02:59N 37°27' E 025°20'0 0.0
2017-May-30 02:30N 37°27' E 025°20'0 0.0
2017-May-30 01:57N 37°27' E 025°20'0 0.0
2017-May-30 00:42N 37°27' E 025°20'0 0.0
2017-May-30 00:30N 37°27' E 025°20'0 0.0
2017-May-29 23:58N 37°27' E 025°20'0 0.0
2017-May-29 23:21N 37°27' E 025°20'0 0.0
2017-May-29 23:00N 37°27' E 025°20'0 0.0
2017-May-29 22:26N 37°27' E 025°20'0 0.0
2017-May-29 21:59N 37°27' E 025°20'0 0.0
2017-May-29 21:24N 37°27' E 025°20'0 0.0
2017-May-29 21:00N 37°27' E 025°20'0 0.0
2017-May-29 20:29N 37°27' E 025°20'0 0.0
2017-May-29 20:00N 37°27' E 025°20'0 0.0
2017-May-29 19:26N 37°27' E 025°20'0 0.0
2017-May-29 19:00N 37°27' E 025°20'0 0.0
2017-May-29 18:29N 37°27' E 025°20'0 0.0
2017-May-29 18:00N 37°27' E 025°20'0 0.0
2017-May-29 17:30N 37°27' E 025°20'0 0.0
2017-May-29 16:59N 37°27' E 025°20'0 0.0
2017-May-29 16:30N 37°27' E 025°20'0 0.0
2017-May-29 16:00N 37°27' E 025°20'0 0.0
2017-May-29 15:30N 37°27' E 025°20'0 0.0
2017-May-29 15:00N 37°27' E 025°20'0 0.0
2017-May-29 14:29N 37°27' E 025°20'0 0.0
2017-May-29 13:30N 37°27' E 025°20'0 0.0
2017-May-29 13:00N 37°27' E 025°20'0 0.0
2017-May-29 12:29N 37°27' E 025°20'0 0.0
2017-May-29 12:00N 37°27' E 025°20'0 0.0
2017-May-29 11:30N 37°27' E 025°20'0 0.0
2017-May-29 11:00N 37°27' E 025°20'0 0.0
2017-May-29 10:30N 37°27' E 025°20'0 0.0
2017-May-29 10:00N 37°27' E 025°20'0 0.0
2017-May-29 09:28N 37°27' E 025°20'0 0.0
2017-May-29 09:00N 37°27' E 025°20'0 0.0
2017-May-29 08:30N 37°27' E 025°20'0 0.0
2017-May-29 08:00N 37°27' E 025°20'0 0.0
2017-May-29 07:30N 37°27' E 025°20'0 0.0
2017-May-29 07:00N 37°27' E 025°20'0 0.0
2017-May-29 06:30N 37°27' E 025°20'0 0.0
2017-May-29 06:00N 37°27' E 025°20'0 0.0
2017-May-29 05:30N 37°27' E 025°20'0 0.0
2017-May-29 05:00N 37°27' E 025°20'0 0.0
2017-May-29 04:30N 37°27' E 025°20'0 0.0
2017-May-29 04:00N 37°27' E 025°20'0 0.0
2017-May-29 03:30N 37°27' E 025°20'0 0.0
2017-May-29 03:00N 37°27' E 025°20'0 0.0
2017-May-29 02:30N 37°27' E 025°20'0 0.0
2017-May-29 02:00N 37°27' E 025°20'0 0.0
2017-May-29 01:30N 37°27' E 025°20'0 0.0
2017-May-29 00:59N 37°27' E 025°20'0 0.0
2017-May-29 00:30N 37°27' E 025°20'0 0.0
2017-May-29 00:00N 37°27' E 025°20'0 0.0
2017-May-28 23:30N 37°27' E 025°20'0 0.0
2017-May-28 23:00N 37°27' E 025°20'0 0.0
2017-May-28 22:30N 37°27' E 025°20'0 0.0
2017-May-28 22:00N 37°27' E 025°20'0 0.0
2017-May-28 21:29N 37°27' E 025°20'0 0.0
2017-May-28 21:00N 37°27' E 025°20'0 0.0
2017-May-28 20:30N 37°27' E 025°20'0 0.0
2017-May-28 20:00N 37°27' E 025°20'0 0.0
2017-May-28 19:29N 37°27' E 025°20'0 0.0
2017-May-28 19:00N 37°27' E 025°20'0 0.0
2017-May-28 18:30N 37°27' E 025°20'0 0.0
2017-May-28 18:00N 37°27' E 025°20'0 0.0
2017-May-28 17:30N 37°27' E 025°20'0 0.0
2017-May-28 17:00N 37°27' E 025°20'0 0.0
2017-May-28 16:30N 37°27' E 025°20'0 0.0
2017-May-28 15:59N 37°27' E 025°20'0 0.0
2017-May-28 15:30N 37°27' E 025°20'0 0.0
2017-May-28 15:00N 37°27' E 025°20'0 0.0
2017-May-28 14:00N 37°27' E 025°20'0 0.0
2017-May-28 13:30N 37°27' E 025°20'0 0.0
2017-May-28 13:00N 37°27' E 025°20'0 0.0
2017-May-28 12:30N 37°27' E 025°20'0 0.0
2017-May-28 12:00N 37°27' E 025°20'0 0.0
2017-May-28 11:30N 37°27' E 025°20'0 0.0
2017-May-28 11:00N 37°27' E 025°20'0 0.0
2017-May-28 10:30N 37°27' E 025°20'2 3.3
2017-May-28 10:00N 37°27' E 025°18'3 6.1
2017-May-28 09:30N 37°24' E 025°20'0 0.8
2017-May-28 09:00N 37°25' E 025°20'0 0.0
2017-May-28 08:30N 37°25' E 025°20'0 0.0
2017-May-28 08:00N 37°25' E 025°20'0 0.0
2017-May-28 07:30N 37°25' E 025°20'0 0.0
2017-May-28 07:00N 37°25' E 025°20'0 0.0
2017-May-28 06:30N 37°25' E 025°20'0 0.0
2017-May-28 06:00N 37°25' E 025°20'0 0.0
2017-May-28 05:30N 37°25' E 025°20'0 0.0
2017-May-28 05:00N 37°25' E 025°20'0 0.0
2017-May-28 04:30N 37°25' E 025°20'0 0.0
2017-May-28 04:00N 37°25' E 025°20'0 0.0
2017-May-28 03:30N 37°25' E 025°20'0 0.0
2017-May-28 03:00N 37°25' E 025°20'0 0.0
2017-May-28 02:31N 37°25' E 025°20'0 0.1
2017-May-28 02:00N 37°25' E 025°20'2 4.7
2017-May-28 01:30N 37°23' E 025°18'510.6
2017-May-28 01:00N 37°21' E 025°12'711.0
2017-May-28 00:20N 37°21' E 025°03'411.2
2017-May-28 00:00N 37°21' E 024°58'611.1
2017-May-27 23:30N 37°22' E 024°51'611.4
2017-May-27 23:00N 37°25' E 024°45'  
2017-May-24 12:38N 37°34' E 024°46'111.8
2017-May-24 12:31N 37°33' E 024°47'1611.8
2017-May-24 11:10N 37°26' E 025°05'212.5
2017-May-24 11:00N 37°25' E 025°07'612.3
2017-May-24 10:31N 37°21' E 025°13'611.7
2017-May-24 10:00N 37°21' E 025°21'611.9
2017-May-24 09:30N 37°20' E 025°28'1212.1
2017-May-24 08:31N 37°20' E 025°43'211.9
2017-May-24 08:24N 37°19' E 025°45'511.8
2017-May-24 08:01N 37°19' E 025°51'  
Track history (hours):
 
Tides and Currents Weather Stations Pressure Air Temp Water Temp Dewpoint Dewpoint Depression Visibility Wind Speed Wind Dir Waves Ship Positions

Ocean Drive

Last reported at 2017-Jun-01 08:16 UTC. Time now 2017-Jun-28 17:38 UTC.
Position N 36°59' E 025°17'.
Warning: this ship's position is 27 days out of date.

MMSI: 319901000.

Date/timePositionNaut miles runAvg speedWind from/ knotsBaromVisibWave heightAir tempDewpointWater temp
2017-Jun-01 08:16N 36°59' E 025°17'311.2
2017-Jun-01 08:00N 37°02' E 025°18'611.1
2017-Jun-01 07:30N 37°08' E 025°19'611.5
2017-Jun-01 07:00N 37°13' E 025°19'611.6
2017-Jun-01 06:30N 37°19' E 025°18'611.4
2017-Jun-01 06:00N 37°25' E 025°18'3 5.2
2017-Jun-01 05:29N 37°27' E 025°20'0 0.0
2017-Jun-01 04:00N 37°27' E 025°20'0 0.0
2017-Jun-01 03:27N 37°27' E 025°20'0 0.0
2017-May-31 21:58N 37°27' E 025°20'0 0.0
2017-May-31 21:25N 37°27' E 025°20'0 0.0
2017-May-31 21:00N 37°27' E 025°20'0 0.0
2017-May-31 20:30N 37°27' E 025°20'3 5.4
2017-May-31 20:00N 37°25' E 025°18'3 5.3
2017-May-31 19:30N 37°24' E 025°21'0 0.0
2017-May-31 19:00N 37°24' E 025°21'0 0.0
2017-May-31 18:30N 37°24' E 025°21'0 0.0
2017-May-31 18:00N 37°24' E 025°21'0 0.0
2017-May-31 17:30N 37°24' E 025°21'0 0.0
2017-May-31 17:00N 37°24' E 025°21'0 0.0
2017-May-31 16:30N 37°24' E 025°21'0 0.0
2017-May-31 16:00N 37°24' E 025°21'0 0.0
2017-May-31 15:30N 37°24' E 025°21'0 0.0
2017-May-31 15:00N 37°24' E 025°21'0 0.0
2017-May-31 14:00N 37°24' E 025°21'0 0.0
2017-May-31 13:30N 37°24' E 025°21'1 1.6
2017-May-31 13:00N 37°24' E 025°22'3 6.9
2017-May-31 12:30N 37°25' E 025°18'2 4.7
2017-May-31 12:00N 37°27' E 025°20'0 0.1
2017-May-31 11:28N 37°27' E 025°20'0 0.0
2017-May-31 11:00N 37°27' E 025°20'0 0.0
2017-May-31 10:30N 37°27' E 025°20'0 0.0
2017-May-31 10:00N 37°27' E 025°20'0 0.0
2017-May-31 09:30N 37°27' E 025°20'0 0.0
2017-May-31 08:59N 37°27' E 025°20'0 0.0
2017-May-31 08:28N 37°27' E 025°20'0 0.0
2017-May-31 08:00N 37°27' E 025°20'0 0.0
2017-May-31 07:30N 37°27' E 025°20'0 0.0
2017-May-31 07:00N 37°27' E 025°20'0 0.0
2017-May-31 06:30N 37°27' E 025°20'0 0.0
2017-May-31 06:00N 37°27' E 025°20'0 0.0
2017-May-31 05:30N 37°27' E 025°20'0 0.0
2017-May-31 05:00N 37°27' E 025°20'0 0.0
2017-May-31 04:30N 37°27' E 025°20'0 0.0
2017-May-31 04:00N 37°27' E 025°20'0 0.0
2017-May-31 03:30N 37°27' E 025°20'0 0.0
2017-May-31 03:00N 37°27' E 025°20'0 0.0
2017-May-31 02:30N 37°27' E 025°20'0 0.0
2017-May-31 02:00N 37°27' E 025°20'0 0.0
2017-May-31 01:30N 37°27' E 025°20'0 0.0
2017-May-31 00:59N 37°27' E 025°20'0 0.0
2017-May-31 00:29N 37°27' E 025°20'0 0.0
2017-May-31 00:00N 37°27' E 025°20'0 0.0
2017-May-30 23:30N 37°27' E 025°20'1 1.2
2017-May-30 23:00N 37°26' E 025°19'0 0.0
2017-May-30 22:30N 37°26' E 025°19'2 3.4
2017-May-30 22:00N 37°26' E 025°17'3 6.4
2017-May-30 21:30N 37°24' E 025°21'0 0.2
2017-May-30 21:00N 37°24' E 025°21'0 0.0
2017-May-30 20:30N 37°24' E 025°21'0 0.0
2017-May-30 20:00N 37°24' E 025°21'0 0.0
2017-May-30 19:30N 37°24' E 025°21'0 0.0
2017-May-30 19:00N 37°24' E 025°21'0 0.0
2017-May-30 18:30N 37°24' E 025°21'0 0.0
2017-May-30 18:00N 37°24' E 025°21'0 0.0
2017-May-30 17:30N 37°24' E 025°21'0 0.0
2017-May-30 17:00N 37°24' E 025°21'0 0.0
2017-May-30 16:30N 37°24' E 025°21'0 0.0
2017-May-30 16:00N 37°24' E 025°21'0 0.4
2017-May-30 15:31N 37°24' E 025°21'3 5.1
2017-May-30 15:00N 37°25' E 025°18'3 2.5
2017-May-30 13:59N 37°27' E 025°20'0 0.0
2017-May-30 13:29N 37°27' E 025°20'0 0.0
2017-May-30 13:00N 37°27' E 025°20'0 0.0
2017-May-30 12:30N 37°27' E 025°20'0 0.0
2017-May-30 11:59N 37°27' E 025°20'0 0.0
2017-May-30 11:30N 37°27' E 025°20'0 0.0
2017-May-30 11:00N 37°27' E 025°20'0 0.0
2017-May-30 10:30N 37°27' E 025°20'0 0.0
2017-May-30 10:00N 37°27' E 025°20'0 0.0
2017-May-30 09:30N 37°27' E 025°20'0 0.0
2017-May-30 09:00N 37°27' E 025°20'0 0.0
2017-May-30 08:30N 37°27' E 025°20'0 0.0
2017-May-30 07:56N 37°27' E 025°20'0 0.0
2017-May-30 07:30N 37°27' E 025°20'0 0.0
2017-May-30 06:59N 37°27' E 025°20'0 0.0
2017-May-30 06:29N 37°27' E 025°20'0 0.0
2017-May-30 06:00N 37°27' E 025°20'0 0.0
2017-May-30 05:26N 37°27' E 025°20'0 0.0
2017-May-30 05:00N 37°27' E 025°20'0 0.0
2017-May-30 04:30N 37°27' E 025°20'0 0.0
2017-May-30 04:00N 37°27' E 025°20'0 0.0
2017-May-30 03:30N 37°27' E 025°20'0 0.0
2017-May-30 02:59N 37°27' E 025°20'0 0.0
2017-May-30 02:30N 37°27' E 025°20'0 0.0
2017-May-30 01:57N 37°27' E 025°20'0 0.0
2017-May-30 00:42N 37°27' E 025°20'0 0.0
2017-May-30 00:30N 37°27' E 025°20'0 0.0
2017-May-29 23:58N 37°27' E 025°20'0 0.0
2017-May-29 23:21N 37°27' E 025°20'0 0.0
2017-May-29 23:00N 37°27' E 025°20'0 0.0
2017-May-29 22:26N 37°27' E 025°20'0 0.0
2017-May-29 21:59N 37°27' E 025°20'0 0.0
2017-May-29 21:24N 37°27' E 025°20'0 0.0
2017-May-29 21:00N 37°27' E 025°20'0 0.0
2017-May-29 20:29N 37°27' E 025°20'0 0.0
2017-May-29 20:00N 37°27' E 025°20'0 0.0
2017-May-29 19:26N 37°27' E 025°20'0 0.0
2017-May-29 19:00N 37°27' E 025°20'0 0.0
2017-May-29 18:29N 37°27' E 025°20'0 0.0
2017-May-29 18:00N 37°27' E 025°20'0 0.0
2017-May-29 17:30N 37°27' E 025°20'0 0.0
2017-May-29 16:59N 37°27' E 025°20'0 0.0
2017-May-29 16:30N 37°27' E 025°20'0 0.0
2017-May-29 16:00N 37°27' E 025°20'0 0.0
2017-May-29 15:30N 37°27' E 025°20'0 0.0
2017-May-29 15:00N 37°27' E 025°20'0 0.0
2017-May-29 14:29N 37°27' E 025°20'0 0.0
2017-May-29 13:30N 37°27' E 025°20'0 0.0
2017-May-29 13:00N 37°27' E 025°20'0 0.0
2017-May-29 12:29N 37°27' E 025°20'0 0.0
2017-May-29 12:00N 37°27' E 025°20'0 0.0
2017-May-29 11:30N 37°27' E 025°20'0 0.0
2017-May-29 11:00N 37°27' E 025°20'0 0.0
2017-May-29 10:30N 37°27' E 025°20'0 0.0
2017-May-29 10:00N 37°27' E 025°20'0 0.0
2017-May-29 09:28N 37°27' E 025°20'0 0.0
2017-May-29 09:00N 37°27' E 025°20'0 0.0
2017-May-29 08:30N 37°27' E 025°20'0 0.0
2017-May-29 08:00N 37°27' E 025°20'0 0.0
2017-May-29 07:30N 37°27' E 025°20'0 0.0
2017-May-29 07:00N 37°27' E 025°20'0 0.0
2017-May-29 06:30N 37°27' E 025°20'0 0.0
2017-May-29 06:00N 37°27' E 025°20'0 0.0
2017-May-29 05:30N 37°27' E 025°20'0 0.0
2017-May-29 05:00N 37°27' E 025°20'0 0.0
2017-May-29 04:30N 37°27' E 025°20'0 0.0
2017-May-29 04:00N 37°27' E 025°20'0 0.0
2017-May-29 03:30N 37°27' E 025°20'0 0.0
2017-May-29 03:00N 37°27' E 025°20'0 0.0
2017-May-29 02:30N 37°27' E 025°20'0 0.0
2017-May-29 02:00N 37°27' E 025°20'0 0.0
2017-May-29 01:30N 37°27' E 025°20'0 0.0
2017-May-29 00:59N 37°27' E 025°20'0 0.0
2017-May-29 00:30N 37°27' E 025°20'0 0.0
2017-May-29 00:00N 37°27' E 025°20'0 0.0
2017-May-28 23:30N 37°27' E 025°20'0 0.0
2017-May-28 23:00N 37°27' E 025°20'0 0.0
2017-May-28 22:30N 37°27' E 025°20'0 0.0
2017-May-28 22:00N 37°27' E 025°20'0 0.0
2017-May-28 21:29N 37°27' E 025°20'0 0.0
2017-May-28 21:00N 37°27' E 025°20'0 0.0
2017-May-28 20:30N 37°27' E 025°20'0 0.0
2017-May-28 20:00N 37°27' E 025°20'0 0.0
2017-May-28 19:29N 37°27' E 025°20'0 0.0
2017-May-28 19:00N 37°27' E 025°20'0 0.0
2017-May-28 18:30N 37°27' E 025°20'0 0.0
2017-May-28 18:00N 37°27' E 025°20'0 0.0
2017-May-28 17:30N 37°27' E 025°20'0 0.0
2017-May-28 17:00N 37°27' E 025°20'0 0.0
2017-May-28 16:30N 37°27' E 025°20'0 0.0
2017-May-28 15:59N 37°27' E 025°20'0 0.0
2017-May-28 15:30N 37°27' E 025°20'0 0.0
2017-May-28 15:00N 37°27' E 025°20'0 0.0
2017-May-28 14:00N 37°27' E 025°20'0 0.0
2017-May-28 13:30N 37°27' E 025°20'0 0.0
2017-May-28 13:00N 37°27' E 025°20'0 0.0
2017-May-28 12:30N 37°27' E 025°20'0 0.0
2017-May-28 12:00N 37°27' E 025°20'0 0.0
2017-May-28 11:30N 37°27' E 025°20'0 0.0
2017-May-28 11:00N 37°27' E 025°20'0 0.0
2017-May-28 10:30N 37°27' E 025°20'2 3.3
2017-May-28 10:00N 37°27' E 025°18'3 6.1
2017-May-28 09:30N 37°24' E 025°20'0 0.8
2017-May-28 09:00N 37°25' E 025°20'0 0.0
2017-May-28 08:30N 37°25' E 025°20'0 0.0
2017-May-28 08:00N 37°25' E 025°20'0 0.0
2017-May-28 07:30N 37°25' E 025°20'0 0.0
2017-May-28 07:00N 37°25' E 025°20'0 0.0
2017-May-28 06:30N 37°25' E 025°20'0 0.0
2017-May-28 06:00N 37°25' E 025°20'0 0.0
2017-May-28 05:30N 37°25' E 025°20'0 0.0
2017-May-28 05:00N 37°25' E 025°20'0 0.0
2017-May-28 04:30N 37°25' E 025°20'0 0.0
2017-May-28 04:00N 37°25' E 025°20'0 0.0
2017-May-28 03:30N 37°25' E 025°20'0 0.0
2017-May-28 03:00N 37°25' E 025°20'0 0.0
2017-May-28 02:31N 37°25' E 025°20'0 0.1
2017-May-28 02:00N 37°25' E 025°20'2 4.7
2017-May-28 01:30N 37°23' E 025°18'510.6
2017-May-28 01:00N 37°21' E 025°12'711.0
2017-May-28 00:20N 37°21' E 025°03'411.2
2017-May-28 00:00N 37°21' E 024°58'611.1
2017-May-27 23:30N 37°22' E 024°51'611.4
2017-May-27 23:00N 37°25' E 024°45'  
2017-May-24 12:38N 37°34' E 024°46'111.8
2017-May-24 12:31N 37°33' E 024°47'1611.8
2017-May-24 11:10N 37°26' E 025°05'212.5
2017-May-24 11:00N 37°25' E 025°07'612.3
2017-May-24 10:31N 37°21' E 025°13'611.7
2017-May-24 10:00N 37°21' E 025°21'611.9
2017-May-24 09:30N 37°20' E 025°28'1212.1
2017-May-24 08:31N 37°20' E 025°43'211.9
2017-May-24 08:24N 37°19' E 025°45'511.8
2017-May-24 08:01N 37°19' E 025°51'  

Dump ship's entire track history